Golden Triangle Regional Air, Mississippi
Current Conditions -  °F | °C
As of 4:15 AM on Friday 19 Dec 2014 (Local Time) from KGTR Reporting Station
Overcast Overcast  
Wind Chill:   Ceiling: 3200
Heat Index:   Visibility: 10mi
Dew Point:   Wind: 3mph
Humidity: 81%   Direction: 30°NNE
Pressure: 30.17"   Gusts: NA
Location:  33.455°N, 88.5512°W
Report Text: KGTR 191015Z 03003KT 10SM OVC032 06/03 A3017 RMK AO1
Loading
Personal Weather Stations






























Interactive Weather Map New forecast layout! Learn more

10-Day Weather Forecast

Advertisements
Track Severe Weather on mobile